Terminal Aerodrome Forecast
Issued by NWS Buffalo, NY

Home | Current Version | Previous Version | Text Only | Print | Product List | Glossary On
Versions: 1 2 3 4 5 6 7 8 9 10 11 12 13 14 15 16 17 18 19 20 21 22 23 24 25
000
FTUS41 KBUF 310500
TAFART
TAF
KART 310532Z 3106/0106 00000KT P6SM BKN200
     FM310800 00000KT P6SM BKN040
     FM311500 11004KT P6SM OVC035
     FM311800 07004KT P6SM OVC035
     FM312300 04007KT P6SM VCSH OVC035=

USA.gov is the U.S. government's official web portal to all federal, state and local government web resources and services.